sensor_id;sensor_type;location;lat;lon;timestamp;pressure;altitude;pressure_sealevel;temperature;humidity
57708;BME280;43540;51.690;9.562;2023-10-13T00:01:34;99018.81;;;16.17;100.00
57708;BME280;43540;51.690;9.562;2023-10-13T00:04:01;99021.63;;;16.24;100.00
57708;BME280;43540;51.690;9.562;2023-10-13T00:06:28;99026.41;;;16.37;100.00
57708;BME280;43540;51.690;9.562;2023-10-13T00:08:55;99010.66;;;16.35;100.00
57708;BME280;43540;51.690;9.562;2023-10-13T00:11:22;99031.59;;;16.06;100.00
57708;BME280;43540;51.690;9.562;2023-10-13T00:13:49;99021.28;;;16.27;100.00
57708;BME280;43540;51.690;9.562;2023-10-13T00:16:21;99019.47;;;16.28;100.00
57708;BME280;43540;51.690;9.562;2023-10-13T00:18:49;99019.81;;;16.25;100.00
57708;BME280;43540;51.690;9.562;2023-10-13T00:21:20;99014.50;;;16.25;100.00
57708;BME280;43540;51.690;9.562;2023-10-13T00:24:00;99015.47;;;16.40;100.00
57708;BME280;43540;51.690;9.562;2023-10-13T00:26:32;99012.81;;;16.40;100.00
57708;BME280;43540;51.690;9.562;2023-10-13T00:29:09;99013.22;;;16.20;100.00
57708;BME280;43540;51.690;9.562;2023-10-13T00:31:55;99010.88;;;16.26;100.00
57708;BME280;43540;51.690;9.562;2023-10-13T00:34:21;99013.34;;;16.27;100.00
57708;BME280;43540;51.690;9.562;2023-10-13T00:36:55;99012.66;;;16.33;100.00
57708;BME280;43540;51.690;9.562;2023-10-13T00:39:42;99014.00;;;16.37;100.00
57708;BME280;43540;51.690;9.562;2023-10-13T00:42:13;98997.63;;;16.34;100.00
57708;BME280;43540;51.690;9.562;2023-10-13T00:44:46;99003.56;;;16.36;100.00
57708;BME280;43540;51.690;9.562;2023-10-13T00:47:17;99003.75;;;16.26;100.00
57708;BME280;43540;51.690;9.562;2023-10-13T00:50:04;99003.06;;;16.40;100.00
57708;BME280;43540;51.690;9.562;2023-10-13T00:52:35;98999.88;;;16.45;100.00
57708;BME280;43540;51.690;9.562;2023-10-13T00:55:03;99002.25;;;16.40;100.00
57708;BME280;43540;51.690;9.562;2023-10-13T00:57:31;98998.59;;;16.41;100.00
57708;BME280;43540;51.690;9.562;2023-10-13T00:59:59;98999.75;;;16.46;100.00
57708;BME280;43540;51.690;9.562;2023-10-13T01:02:26;98985.88;;;16.36;100.00
57708;BME280;43540;51.690;9.562;2023-10-13T01:05:06;98993.78;;;16.44;100.00
57708;BME280;43540;51.690;9.562;2023-10-13T01:07:37;98992.78;;;16.45;100.00
57708;BME280;43540;51.690;9.562;2023-10-13T01:10:04;98995.91;;;16.49;100.00
57708;BME280;43540;51.690;9.562;2023-10-13T01:12:39;98989.81;;;16.48;100.00
57708;BME280;43540;51.690;9.562;2023-10-13T01:15:10;98998.38;;;16.50;100.00
57708;BME280;43540;51.690;9.562;2023-10-13T01:17:37;98996.16;;;16.31;100.00
57708;BME280;43540;51.690;9.562;2023-10-13T01:20:04;98982.09;;;16.31;100.00
57708;BME280;43540;51.690;9.562;2023-10-13T01:22:32;98999.06;;;16.44;100.00
57708;BME280;43540;51.690;9.562;2023-10-13T01:24:59;98989.16;;;16.46;100.00
57708;BME280;43540;51.690;9.562;2023-10-13T01:27:37;98997.75;;;16.48;100.00
57708;BME280;43540;51.690;9.562;2023-10-13T01:30:07;98988.44;;;16.53;100.00
57708;BME280;43540;51.690;9.562;2023-10-13T01:32:50;98987.41;;;16.23;100.00
57708;BME280;43540;51.690;9.562;2023-10-13T01:35:18;98989.97;;;16.47;100.00
57708;BME280;43540;51.690;9.562;2023-10-13T01:38:01;98987.34;;;16.47;100.00
57708;BME280;43540;51.690;9.562;2023-10-13T01:40:27;98976.91;;;16.45;100.00
57708;BME280;43540;51.690;9.562;2023-10-13T01:43:01;98977.78;;;16.38;100.00
57708;BME280;43540;51.690;9.562;2023-10-13T01:45:27;98976.78;;;16.39;100.00
57708;BME280;43540;51.690;9.562;2023-10-13T01:47:57;98976.75;;;16.47;100.00
57708;BME280;43540;51.690;9.562;2023-10-13T01:50:24;98974.44;;;16.44;100.00
57708;BME280;43540;51.690;9.562;2023-10-13T01:52:57;98963.03;;;16.43;100.00
57708;BME280;43540;51.690;9.562;2023-10-13T01:55:39;98954.44;;;16.41;100.00
57708;BME280;43540;51.690;9.562;2023-10-13T01:58:11;98953.75;;;16.47;100.00
57708;BME280;43540;51.690;9.562;2023-10-13T02:00:45;98946.28;;;16.51;100.00
57708;BME280;43540;51.690;9.562;2023-10-13T02:03:14;98949.13;;;16.49;100.00
57708;BME280;43540;51.690;9.562;2023-10-13T02:05:48;98949.75;;;16.52;100.00
57708;BME280;43540;51.690;9.562;2023-10-13T02:08:19;98953.59;;;16.49;100.00
57708;BME280;43540;51.690;9.562;2023-10-13T02:10:53;98950.34;;;16.39;100.00
57708;BME280;43540;51.690;9.562;2023-10-13T02:13:22;98946.69;;;16.40;100.00
57708;BME280;43540;51.690;9.562;2023-10-13T02:15:53;98950.81;;;16.42;100.00
57708;BME280;43540;51.690;9.562;2023-10-13T02:18:20;98959.13;;;16.31;100.00
57708;BME280;43540;51.690;9.562;2023-10-13T02:20:56;98957.09;;;16.41;100.00
57708;BME280;43540;51.690;9.562;2023-10-13T02:23:24;98952.00;;;16.32;100.00
57708;BME280;43540;51.690;9.562;2023-10-13T02:25:51;98945.38;;;16.36;100.00
57708;BME280;43540;51.690;9.562;2023-10-13T02:28:27;98924.59;;;16.25;100.00
57708;BME280;43540;51.690;9.562;2023-10-13T02:30:57;98921.28;;;16.31;100.00
57708;BME280;43540;51.690;9.562;2023-10-13T02:33:24;98938.56;;;16.41;100.00
57708;BME280;43540;51.690;9.562;2023-10-13T02:36:02;98927.31;;;16.47;100.00
57708;BME280;43540;51.690;9.562;2023-10-13T02:38:32;98931.47;;;16.42;100.00
57708;BME280;43540;51.690;9.562;2023-10-13T02:40:59;98928.16;;;16.40;100.00
57708;BME280;43540;51.690;9.562;2023-10-13T02:43:36;98922.22;;;16.38;100.00
57708;BME280;43540;51.690;9.562;2023-10-13T02:46:03;98923.16;;;16.14;100.00
57708;BME280;43540;51.690;9.562;2023-10-13T02:48:30;98908.19;;;16.37;100.00
57708;BME280;43540;51.690;9.562;2023-10-13T02:51:07;98902.53;;;16.09;100.00
57708;BME280;43540;51.690;9.562;2023-10-13T02:53:44;98908.72;;;16.25;100.00
57708;BME280;43540;51.690;9.562;2023-10-13T02:56:16;98902.97;;;16.21;100.00
57708;BME280;43540;51.690;9.562;2023-10-13T02:58:52;98906.44;;;16.21;100.00
57708;BME280;43540;51.690;9.562;2023-10-13T03:01:33;98903.13;;;16.28;100.00
57708;BME280;43540;51.690;9.562;2023-10-13T03:04:02;98903.47;;;16.16;100.00
57708;BME280;43540;51.690;9.562;2023-10-13T03:06:29;98896.66;;;16.30;100.00
57708;BME280;43540;51.690;9.562;2023-10-13T03:09:03;98896.09;;;16.35;100.00
57708;BME280;43540;51.690;9.562;2023-10-13T03:11:46;98884.50;;;16.13;100.00
57708;BME280;43540;51.690;9.562;2023-10-13T03:16:57;98875.94;;;16.34;100.00
57708;BME280;43540;51.690;9.562;2023-10-13T03:19:44;98879.63;;;16.25;100.00
57708;BME280;43540;51.690;9.562;2023-10-13T03:22:18;98878.84;;;16.16;100.00
57708;BME280;43540;51.690;9.562;2023-10-13T03:24:45;98879.47;;;16.26;100.00
57708;BME280;43540;51.690;9.562;2023-10-13T03:27:15;98869.50;;;16.05;100.00
57708;BME280;43540;51.690;9.562;2023-10-13T03:29:44;98867.25;;;16.25;100.00
57708;BME280;43540;51.690;9.562;2023-10-13T03:32:14;98867.56;;;16.30;100.00
57708;BME280;43540;51.690;9.562;2023-10-13T03:34:46;98868.78;;;16.19;100.00
57708;BME280;43540;51.690;9.562;2023-10-13T03:37:28;98875.66;;;16.29;100.00
57708;BME280;43540;51.690;9.562;2023-10-13T03:40:09;98882.06;;;16.34;100.00
57708;BME280;43540;51.690;9.562;2023-10-13T03:43:03;98874.31;;;16.33;100.00
57708;BME280;43540;51.690;9.562;2023-10-13T03:48:25;98859.56;;;16.38;100.00
57708;BME280;43540;51.690;9.562;2023-10-13T03:51:01;98873.09;;;16.43;100.00
57708;BME280;43540;51.690;9.562;2023-10-13T03:53:29;98861.50;;;16.44;100.00
57708;BME280;43540;51.690;9.562;2023-10-13T03:56:01;98857.47;;;16.26;100.00
57708;BME280;43540;51.690;9.562;2023-10-13T03:58:59;98859.22;;;16.41;100.00
57708;BME280;43540;51.690;9.562;2023-10-13T04:01:46;98859.34;;;16.48;100.00
57708;BME280;43540;51.690;9.562;2023-10-13T04:04:25;98847.44;;;16.44;100.00
57708;BME280;43540;51.690;9.562;2023-10-13T04:07:04;98855.69;;;16.49;100.00
57708;BME280;43540;51.690;9.562;2023-10-13T04:09:35;98854.97;;;16.32;100.00
57708;BME280;43540;51.690;9.562;2023-10-13T04:12:14;98847.94;;;16.47;100.00
57708;BME280;43540;51.690;9.562;2023-10-13T04:15:12;98844.81;;;16.44;100.00
57708;BME280;43540;51.690;9.562;2023-10-13T04:17:44;98848.75;;;16.48;100.00
57708;BME280;43540;51.690;9.562;2023-10-13T04:20:13;98844.16;;;16.42;100.00
57708;BME280;43540;51.690;9.562;2023-10-13T04:22:42;98840.50;;;16.43;100.00
57708;BME280;43540;51.690;9.562;2023-10-13T04:25:20;98837.63;;;16.30;100.00
57708;BME280;43540;51.690;9.562;2023-10-13T04:28:13;98840.94;;;16.32;100.00
57708;BME280;43540;51.690;9.562;2023-10-13T04:30:49;98846.44;;;16.22;100.00
57708;BME280;43540;51.690;9.562;2023-10-13T04:33:38;98838.50;;;16.45;100.00
57708;BME280;43540;51.690;9.562;2023-10-13T04:36:18;98823.47;;;16.23;100.00
57708;BME280;43540;51.690;9.562;2023-10-13T04:38:58;98826.59;;;16.49;100.00
57708;BME280;43540;51.690;9.562;2023-10-13T04:41:37;98824.78;;;16.49;100.00
57708;BME280;43540;51.690;9.562;2023-10-13T04:44:13;98819.34;;;16.43;100.00
57708;BME280;43540;51.690;9.562;2023-10-13T04:47:00;98819.66;;;16.48;100.00
57708;BME280;43540;51.690;9.562;2023-10-13T04:49:31;98815.25;;;16.40;100.00
57708;BME280;43540;51.690;9.562;2023-10-13T04:52:02;98803.31;;;16.44;100.00
57708;BME280;43540;51.690;9.562;2023-10-13T04:54:37;98800.41;;;16.54;100.00
57708;BME280;43540;51.690;9.562;2023-10-13T04:57:22;98786.84;;;16.57;100.00
57708;BME280;43540;51.690;9.562;2023-10-13T04:59:50;98778.53;;;16.60;100.00
57708;BME280;43540;51.690;9.562;2023-10-13T05:02:40;98777.50;;;16.69;100.00
57708;BME280;43540;51.690;9.562;2023-10-13T05:05:10;98768.78;;;16.61;100.00
57708;BME280;43540;51.690;9.562;2023-10-13T05:07:48;98766.50;;;16.58;100.00
57708;BME280;43540;51.690;9.562;2023-10-13T05:10:35;98771.16;;;16.56;100.00
57708;BME280;43540;51.690;9.562;2023-10-13T05:13:31;98761.53;;;16.55;100.00
57708;BME280;43540;51.690;9.562;2023-10-13T05:16:16;98759.81;;;16.70;100.00
57708;BME280;43540;51.690;9.562;2023-10-13T05:19:02;98749.84;;;16.72;100.00
57708;BME280;43540;51.690;9.562;2023-10-13T05:21:47;98760.84;;;16.61;100.00
57708;BME280;43540;51.690;9.562;2023-10-13T05:24:32;98757.69;;;16.65;100.00
57708;BME280;43540;51.690;9.562;2023-10-13T05:27:17;98750.03;;;16.70;100.00
57708;BME280;43540;51.690;9.562;2023-10-13T05:30:02;98756.78;;;16.73;100.00
57708;BME280;43540;51.690;9.562;2023-10-13T05:32:47;98759.34;;;16.81;100.00
57708;BME280;43540;51.690;9.562;2023-10-13T05:35:33;98745.59;;;16.63;100.00
57708;BME280;43540;51.690;9.562;2023-10-13T05:38:18;98741.88;;;16.57;100.00
57708;BME280;43540;51.690;9.562;2023-10-13T05:41:05;98742.97;;;16.63;100.00
57708;BME280;43540;51.690;9.562;2023-10-13T05:43:51;98740.09;;;16.72;100.00
57708;BME280;43540;51.690;9.562;2023-10-13T05:46:37;98732.97;;;16.73;100.00
57708;BME280;43540;51.690;9.562;2023-10-13T05:49:06;98729.78;;;16.77;100.00
57708;BME280;43540;51.690;9.562;2023-10-13T05:51:39;98739.56;;;16.77;100.00
57708;BME280;43540;51.690;9.562;2023-10-13T05:54:18;98741.22;;;16.78;100.00
57708;BME280;43540;51.690;9.562;2023-10-13T05:56:49;98740.47;;;16.69;100.00
57708;BME280;43540;51.690;9.562;2023-10-13T05:59:36;98738.09;;;16.74;100.00
57708;BME280;43540;51.690;9.562;2023-10-13T06:02:24;98732.75;;;16.83;100.00
57708;BME280;43540;51.690;9.562;2023-10-13T06:05:11;98737.66;;;16.86;100.00
57708;BME280;43540;51.690;9.562;2023-10-13T06:07:57;98738.94;;;16.90;100.00
57708;BME280;43540;51.690;9.562;2023-10-13T06:10:43;98734.19;;;17.00;100.00
57708;BME280;43540;51.690;9.562;2023-10-13T06:13:28;98733.56;;;16.98;100.00
57708;BME280;43540;51.690;9.562;2023-10-13T06:16:15;98722.50;;;16.80;100.00
57708;BME280;43540;51.690;9.562;2023-10-13T06:19:01;98724.69;;;16.91;100.00
57708;BME280;43540;51.690;9.562;2023-10-13T06:21:47;98726.34;;;16.92;100.00
57708;BME280;43540;51.690;9.562;2023-10-13T06:24:32;98728.44;;;16.96;100.00
57708;BME280;43540;51.690;9.562;2023-10-13T06:27:17;98729.63;;;17.09;100.00
57708;BME280;43540;51.690;9.562;2023-10-13T06:30:03;98722.88;;;17.06;100.00
57708;BME280;43540;51.690;9.562;2023-10-13T06:32:32;98727.44;;;17.12;100.00
57708;BME280;43540;51.690;9.562;2023-10-13T06:35:00;98718.69;;;17.12;100.00
57708;BME280;43540;51.690;9.562;2023-10-13T06:37:45;98718.13;;;17.16;100.00
57708;BME280;43540;51.690;9.562;2023-10-13T06:40:13;98714.56;;;17.09;100.00
57708;BME280;43540;51.690;9.562;2023-10-13T06:42:54;98720.03;;;17.08;100.00
57708;BME280;43540;51.690;9.562;2023-10-13T06:45:43;98726.34;;;17.06;100.00
57708;BME280;43540;51.690;9.562;2023-10-13T06:48:27;98722.59;;;17.16;100.00
57708;BME280;43540;51.690;9.562;2023-10-13T06:50:59;98720.31;;;17.13;100.00
57708;BME280;43540;51.690;9.562;2023-10-13T06:53:30;98719.50;;;17.12;100.00
57708;BME280;43540;51.690;9.562;2023-10-13T06:56:06;98730.84;;;17.21;100.00
57708;BME280;43540;51.690;9.562;2023-10-13T06:58:33;98722.78;;;17.14;100.00
57708;BME280;43540;51.690;9.562;2023-10-13T07:01:00;98713.75;;;17.09;100.00
57708;BME280;43540;51.690;9.562;2023-10-13T07:03:28;98730.91;;;17.13;100.00
57708;BME280;43540;51.690;9.562;2023-10-13T07:05:55;98728.72;;;17.16;100.00
57708;BME280;43540;51.690;9.562;2023-10-13T07:08:25;98719.94;;;17.30;100.00
57708;BME280;43540;51.690;9.562;2023-10-13T07:10:56;98719.94;;;17.30;100.00
57708;BME280;43540;51.690;9.562;2023-10-13T07:13:46;98712.00;;;17.16;100.00
57708;BME280;43540;51.690;9.562;2023-10-13T07:16:16;98708.06;;;17.26;100.00
57708;BME280;43540;51.690;9.562;2023-10-13T07:18:54;98712.63;;;17.32;100.00
57708;BME280;43540;51.690;9.562;2023-10-13T07:21:21;98711.38;;;17.14;100.00
57708;BME280;43540;51.690;9.562;2023-10-13T07:23:57;98709.59;;;17.35;100.00
57708;BME280;43540;51.690;9.562;2023-10-13T07:26:27;98709.25;;;17.39;100.00
57708;BME280;43540;51.690;9.562;2023-10-13T07:28:55;98706.66;;;17.45;100.00
57708;BME280;43540;51.690;9.562;2023-10-13T07:31:21;98714.47;;;17.47;100.00
57708;BME280;43540;51.690;9.562;2023-10-13T07:33:53;98711.72;;;17.40;100.00
57708;BME280;43540;51.690;9.562;2023-10-13T07:36:31;98698.75;;;17.30;100.00
57708;BME280;43540;51.690;9.562;2023-10-13T07:39:05;98708.88;;;17.42;100.00
57708;BME280;43540;51.690;9.562;2023-10-13T07:41:49;98711.91;;;17.39;100.00
57708;BME280;43540;51.690;9.562;2023-10-13T07:44:32;98707.44;;;17.39;100.00
57708;BME280;43540;51.690;9.562;2023-10-13T07:47:01;98706.22;;;17.42;100.00
57708;BME280;43540;51.690;9.562;2023-10-13T07:49:38;98699.00;;;17.35;100.00
57708;BME280;43540;51.690;9.562;2023-10-13T07:52:11;98699.38;;;17.47;100.00
57708;BME280;43540;51.690;9.562;2023-10-13T07:54:55;98704.94;;;17.52;100.00
57708;BME280;43540;51.690;9.562;2023-10-13T07:57:26;98697.06;;;17.44;100.00
57708;BME280;43540;51.690;9.562;2023-10-13T07:59:56;98693.81;;;17.42;100.00
57708;BME280;43540;51.690;9.562;2023-10-13T08:03:01;98698.38;;;17.48;100.00
57708;BME280;43540;51.690;9.562;2023-10-13T08:05:44;98687.81;;;17.55;100.00
57708;BME280;43540;51.690;9.562;2023-10-13T08:08:31;98681.53;;;17.56;100.00
57708;BME280;43540;51.690;9.562;2023-10-13T08:11:13;98685.84;;;17.57;100.00
57708;BME280;43540;51.690;9.562;2023-10-13T08:13:50;98672.63;;;17.78;100.00
57708;BME280;43540;51.690;9.562;2023-10-13T08:16:33;98658.66;;;17.70;100.00
57708;BME280;43540;51.690;9.562;2023-10-13T08:19:16;98643.19;;;17.73;100.00
57708;BME280;43540;51.690;9.562;2023-10-13T08:21:44;98657.66;;;17.92;100.00
57708;BME280;43540;51.690;9.562;2023-10-13T08:24:27;98658.56;;;17.78;100.00
57708;BME280;43540;51.690;9.562;2023-10-13T08:27:07;98647.44;;;17.89;100.00
57708;BME280;43540;51.690;9.562;2023-10-13T08:29:52;98650.59;;;17.99;100.00
57708;BME280;43540;51.690;9.562;2023-10-13T08:32:26;98643.25;;;18.01;100.00
57708;BME280;43540;51.690;9.562;2023-10-13T08:35:01;98631.31;;;17.84;100.00
57708;BME280;43540;51.690;9.562;2023-10-13T08:37:32;98638.16;;;17.78;100.00
57708;BME280;43540;51.690;9.562;2023-10-13T08:40:04;98626.38;;;18.02;100.00
57708;BME280;43540;51.690;9.562;2023-10-13T08:42:35;98629.53;;;18.19;100.00
57708;BME280;43540;51.690;9.562;2023-10-13T08:47:56;98636.66;;;18.40;100.00
57708;BME280;43540;51.690;9.562;2023-10-13T08:50:42;98647.16;;;18.27;100.00
57708;BME280;43540;51.690;9.562;2023-10-13T08:53:19;98640.06;;;18.34;100.00
57708;BME280;43540;51.690;9.562;2023-10-13T08:56:06;98634.38;;;18.37;100.00
57708;BME280;43540;51.690;9.562;2023-10-13T08:59:00;98631.19;;;18.48;100.00
57708;BME280;43540;51.690;9.562;2023-10-13T09:01:35;98635.09;;;18.52;100.00
57708;BME280;43540;51.690;9.562;2023-10-13T09:06:45;98633.25;;;18.81;100.00
57708;BME280;43540;51.690;9.562;2023-10-13T09:09:13;98623.50;;;18.60;100.00
57708;BME280;43540;51.690;9.562;2023-10-13T09:11:59;98627.72;;;18.75;100.00
57708;BME280;43540;51.690;9.562;2023-10-13T09:14:52;98600.72;;;18.72;100.00
57708;BME280;43540;51.690;9.562;2023-10-13T09:17:26;98619.19;;;18.87;100.00
57708;BME280;43540;51.690;9.562;2023-10-13T09:20:06;98613.06;;;18.86;100.00
57708;BME280;43540;51.690;9.562;2023-10-13T09:22:54;98609.84;;;18.63;100.00
57708;BME280;43540;51.690;9.562;2023-10-13T09:25:31;98599.78;;;18.86;100.00
57708;BME280;43540;51.690;9.562;2023-10-13T09:28:12;98616.59;;;19.00;100.00
57708;BME280;43540;51.690;9.562;2023-10-13T09:30:52;98612.53;;;19.04;100.00
57708;BME280;43540;51.690;9.562;2023-10-13T09:33:21;98605.59;;;19.10;100.00
57708;BME280;43540;51.690;9.562;2023-10-13T09:35:55;98603.47;;;18.85;100.00
57708;BME280;43540;51.690;9.562;2023-10-13T09:38:27;98607.22;;;19.04;100.00
57708;BME280;43540;51.690;9.562;2023-10-13T09:40:54;98594.97;;;19.03;100.00
57708;BME280;43540;51.690;9.562;2023-10-13T09:43:24;98590.28;;;19.05;100.00
57708;BME280;43540;51.690;9.562;2023-10-13T09:45:59;98603.22;;;19.28;100.00
57708;BME280;43540;51.690;9.562;2023-10-13T09:48:39;98604.84;;;19.22;100.00
57708;BME280;43540;51.690;9.562;2023-10-13T09:51:15;98596.50;;;19.32;100.00
57708;BME280;43540;51.690;9.562;2023-10-13T09:53:58;98593.63;;;19.33;100.00
57708;BME280;43540;51.690;9.562;2023-10-13T09:56:35;98588.34;;;19.40;100.00
57708;BME280;43540;51.690;9.562;2023-10-13T09:59:24;98589.56;;;19.44;100.00
57708;BME280;43540;51.690;9.562;2023-10-13T10:02:05;98583.84;;;19.47;100.00
57708;BME280;43540;51.690;9.562;2023-10-13T10:04:52;98581.97;;;19.35;100.00
57708;BME280;43540;51.690;9.562;2023-10-13T10:07:26;98573.03;;;19.49;100.00
57708;BME280;43540;51.690;9.562;2023-10-13T10:10:00;98573.84;;;19.49;100.00
57708;BME280;43540;51.690;9.562;2023-10-13T10:15:30;98574.28;;;19.59;100.00
57708;BME280;43540;51.690;9.562;2023-10-13T10:18:20;98563.44;;;19.74;100.00
57708;BME280;43540;51.690;9.562;2023-10-13T10:20:49;98563.84;;;19.65;100.00
57708;BME280;43540;51.690;9.562;2023-10-13T10:23:26;98555.06;;;19.71;100.00
57708;BME280;43540;51.690;9.562;2023-10-13T10:25:55;98553.22;;;19.65;100.00
57708;BME280;43540;51.690;9.562;2023-10-13T10:28:36;98542.19;;;19.81;100.00
57708;BME280;43540;51.690;9.562;2023-10-13T10:31:06;98546.28;;;19.77;100.00
57708;BME280;43540;51.690;9.562;2023-10-13T10:33:36;98528.06;;;19.74;100.00
57708;BME280;43540;51.690;9.562;2023-10-13T10:36:03;98531.78;;;19.86;100.00
57708;BME280;43540;51.690;9.562;2023-10-13T10:38:31;98523.59;;;19.94;100.00
57708;BME280;43540;51.690;9.562;2023-10-13T10:41:05;98522.78;;;19.94;100.00
57708;BME280;43540;51.690;9.562;2023-10-13T10:43:38;98530.31;;;19.90;100.00
57708;BME280;43540;51.690;9.562;2023-10-13T10:46:18;98521.31;;;19.91;100.00
57708;BME280;43540;51.690;9.562;2023-10-13T10:48:45;98522.78;;;19.94;100.00
57708;BME280;43540;51.690;9.562;2023-10-13T10:51:13;98513.38;;;19.84;100.00
57708;BME280;43540;51.690;9.562;2023-10-13T10:53:42;98506.78;;;20.00;100.00
57708;BME280;43540;51.690;9.562;2023-10-13T10:56:13;98501.69;;;19.79;100.00
57708;BME280;43540;51.690;9.562;2023-10-13T10:58:47;98505.78;;;19.95;100.00
57708;BME280;43540;51.690;9.562;2023-10-13T11:01:15;98500.66;;;19.93;100.00
57708;BME280;43540;51.690;9.562;2023-10-13T11:03:55;98501.06;;;19.97;100.00
57708;BME280;43540;51.690;9.562;2023-10-13T11:06:26;98494.94;;;20.03;100.00
57708;BME280;43540;51.690;9.562;2023-10-13T11:09:03;98487.56;;;19.98;100.00
57708;BME280;43540;51.690;9.562;2023-10-13T11:11:30;98485.94;;;20.04;100.00
57708;BME280;43540;51.690;9.562;2023-10-13T11:14:02;98488.53;;;20.17;100.00
57708;BME280;43540;51.690;9.562;2023-10-13T11:16:47;98491.78;;;20.32;100.00
57708;BME280;43540;51.690;9.562;2023-10-13T11:19:41;98475.63;;;20.27;100.00
57708;BME280;43540;51.690;9.562;2023-10-13T11:22:12;98481.53;;;20.36;100.00
57708;BME280;43540;51.690;9.562;2023-10-13T11:25:00;98482.34;;;20.36;100.00
57708;BME280;43540;51.690;9.562;2023-10-13T11:27:36;98485.59;;;20.52;100.00
57708;BME280;43540;51.690;9.562;2023-10-13T11:30:27;98477.22;;;20.48;100.00
57708;BME280;43540;51.690;9.562;2023-10-13T11:33:05;98480.50;;;20.50;100.00
57708;BME280;43540;51.690;9.562;2023-10-13T11:35:34;98474.28;;;20.69;100.00
57708;BME280;43540;51.690;9.562;2023-10-13T11:38:30;98478.19;;;20.67;100.00
57708;BME280;43540;51.690;9.562;2023-10-13T11:41:06;98476.41;;;20.92;100.00
57708;BME280;43540;51.690;9.562;2023-10-13T11:46:13;98452.63;;;20.91;100.00
57708;BME280;43540;51.690;9.562;2023-10-13T11:48:45;98464.19;;;21.10;100.00
57708;BME280;43540;51.690;9.562;2023-10-13T11:51:14;98456.53;;;21.26;100.00
57708;BME280;43540;51.690;9.562;2023-10-13T11:53:50;98445.28;;;21.18;100.00
57708;BME280;43540;51.690;9.562;2023-10-13T11:56:20;98437.88;;;21.20;100.00
57708;BME280;43540;51.690;9.562;2023-10-13T11:58:51;98454.38;;;21.42;100.00
57708;BME280;43540;51.690;9.562;2023-10-13T12:01:18;98446.97;;;21.44;100.00
57708;BME280;43540;51.690;9.562;2023-10-13T12:03:46;98443.19;;;21.58;100.00
57708;BME280;43540;51.690;9.562;2023-10-13T12:06:33;98441.19;;;21.72;100.00
57708;BME280;43540;51.690;9.562;2023-10-13T12:09:05;98434.44;;;21.69;100.00
57708;BME280;43540;51.690;9.562;2023-10-13T12:11:38;98429.84;;;21.58;100.00
57708;BME280;43540;51.690;9.562;2023-10-13T12:14:08;98416.88;;;21.62;100.00
57708;BME280;43540;51.690;9.562;2023-10-13T12:16:43;98428.81;;;21.59;100.00
57708;BME280;43540;51.690;9.562;2023-10-13T12:19:16;98424.16;;;21.48;100.00
57708;BME280;43540;51.690;9.562;2023-10-13T12:21:43;98420.63;;;21.54;100.00
57708;BME280;43540;51.690;9.562;2023-10-13T12:24:10;98412.91;;;21.46;100.00
57708;BME280;43540;51.690;9.562;2023-10-13T12:26:57;98404.31;;;21.44;100.00
57708;BME280;43540;51.690;9.562;2023-10-13T12:29:24;98401.88;;;21.42;100.00
57708;BME280;43540;51.690;9.562;2023-10-13T12:31:55;98395.78;;;21.60;100.00
57708;BME280;43540;51.690;9.562;2023-10-13T12:34:35;98388.34;;;21.62;100.00
57708;BME280;43540;51.690;9.562;2023-10-13T12:37:21;98390.72;;;21.52;100.00
57708;BME280;43540;51.690;9.562;2023-10-13T12:40:17;98387.00;;;21.53;100.00
57708;BME280;43540;51.690;9.562;2023-10-13T12:43:04;98378.56;;;21.56;100.00
57708;BME280;43540;51.690;9.562;2023-10-13T12:45:50;98378.03;;;21.47;100.00
57708;BME280;43540;51.690;9.562;2023-10-13T12:48:37;98372.91;;;21.46;100.00
57708;BME280;43540;51.690;9.562;2023-10-13T12:51:24;98383.59;;;21.46;100.00
57708;BME280;43540;51.690;9.562;2023-10-13T12:53:57;98389.31;;;21.49;100.00
57708;BME280;43540;51.690;9.562;2023-10-13T12:56:46;98374.09;;;21.32;100.00
57708;BME280;43540;51.690;9.562;2023-10-13T12:59:13;98371.88;;;21.47;100.00
57708;BME280;43540;51.690;9.562;2023-10-13T13:01:43;98375.88;;;21.38;100.00
57708;BME280;43540;51.690;9.562;2023-10-13T13:04:10;98380.69;;;21.47;100.00
57708;BME280;43540;51.690;9.562;2023-10-13T13:06:52;98370.31;;;21.39;100.00
57708;BME280;43540;51.690;9.562;2023-10-13T13:09:20;98374.53;;;21.47;100.00
57708;BME280;43540;51.690;9.562;2023-10-13T13:11:53;98378.56;;;21.56;100.00
57708;BME280;43540;51.690;9.562;2023-10-13T13:14:24;98376.78;;;21.50;100.00
57708;BME280;43540;51.690;9.562;2023-10-13T13:16:57;98362.81;;;21.29;100.00
57708;BME280;43540;51.690;9.562;2023-10-13T13:19:35;98372.78;;;21.41;100.00
57708;BME280;43540;51.690;9.562;2023-10-13T13:22:03;98364.88;;;21.52;100.00
57708;BME280;43540;51.690;9.562;2023-10-13T13:24:39;98360.41;;;21.46;100.00
57708;BME280;43540;51.690;9.562;2023-10-13T13:27:14;98353.53;;;21.57;100.00
57708;BME280;43540;51.690;9.562;2023-10-13T13:29:41;98342.94;;;21.50;100.00
57708;BME280;43540;51.690;9.562;2023-10-13T13:32:08;98346.84;;;21.48;100.00
57708;BME280;43540;51.690;9.562;2023-10-13T13:34:55;98338.56;;;21.56;100.00
57708;BME280;43540;51.690;9.562;2023-10-13T13:37:31;98344.84;;;21.43;100.00
57708;BME280;43540;51.690;9.562;2023-10-13T13:39:58;98337.22;;;21.47;100.00
57708;BME280;43540;51.690;9.562;2023-10-13T13:42:43;98313.38;;;21.34;100.00
57708;BME280;43540;51.690;9.562;2023-10-13T13:45:15;98324.06;;;21.52;100.00
57708;BME280;43540;51.690;9.562;2023-10-13T13:47:49;98335.59;;;21.64;100.00
57708;BME280;43540;51.690;9.562;2023-10-13T13:50:21;98329.25;;;21.65;100.00
57708;BME280;43540;51.690;9.562;2023-10-13T13:52:52;98326.22;;;21.62;100.00